Time;durP1;ratioP1;P1;durP2;ratioP2;P2;SDS_P1;SDS_P2;PMS_P1;PMS_P2;Temp;Humidity;BMP_temperature;BMP_pressure;BME280_temperature;BME280_humidity;BME280_pressure;Samples;Min_cycle;Max_cycle;Signal;HPM_P1;HPM_P2
2021/07/15 00:00:34;;;;;;;36.58;21.48;;;17.00;89.30;;;;;;5086625;28;20102;-77
2021/07/15 00:03:05;;;;;;;36.75;21.17;;;17.00;89.30;;;;;;5071749;28;20636;-77
2021/07/15 00:05:31;;;;;;;35.08;21.17;;;16.90;89.30;;;;;;5080349;28;20111;-75
2021/07/15 00:07:57;;;;;;;35.55;21.15;;;16.90;89.40;;;;;;5091529;28;20072;-77
2021/07/15 00:10:33;;;;;;;35.25;19.55;;;17.00;89.30;;;;;;5089440;28;20039;-77
2021/07/15 00:12:59;;;;;;;32.95;19.30;;;16.90;89.40;;;;;;5089998;28;20039;-77
2021/07/15 00:15:26;;;;;;;31.75;18.65;;;16.90;89.50;;;;;;5085549;28;20040;-78
2021/07/15 00:17:54;;;;;;;33.75;17.83;;;16.90;89.40;;;;;;5069676;28;20036;-76
2021/07/15 00:20:20;;;;;;;33.45;18.35;;;16.80;89.40;;;;;;5069429;28;20040;-76
2021/07/15 00:22:46;;;;;;;35.08;17.77;;;16.80;89.40;;;;;;5070950;28;20025;-76
2021/07/15 00:25:15;;;;;;;30.88;18.95;;;16.90;89.40;;;;;;5070690;28;20051;-77
2021/07/15 00:27:42;;;;;;;29.58;16.90;;;16.80;89.50;;;;;;5081855;28;20077;-77
2021/07/15 00:30:08;;;;;;;31.02;16.88;;;16.90;89.50;;;;;;5087925;28;20382;-76
2021/07/15 00:32:34;;;;;;;34.53;18.20;;;16.90;89.40;;;;;;5077319;28;20024;-75
2021/07/15 00:35:00;;;;;;;33.60;18.73;;;16.90;89.40;;;;;;5089689;28;20038;-77
2021/07/15 00:37:26;;;;;;;32.50;17.88;;;16.90;89.40;;;;;;5087869;28;20566;-75
2021/07/15 00:39:51;;;;;;;33.67;18.95;;;16.80;89.40;;;;;;5091438;28;20032;-75
2021/07/15 00:42:17;;;;;;;31.45;17.85;;;16.80;89.30;;;;;;5088766;28;20609;-77
2021/07/15 00:44:43;;;;;;;32.42;17.98;;;16.90;89.30;;;;;;5090987;28;20032;-76
2021/07/15 00:47:09;;;;;;;29.95;16.95;;;16.90;89.30;;;;;;5089176;28;20059;-76
2021/07/15 00:49:35;;;;;;;29.08;16.75;;;16.90;89.30;;;;;;5089838;28;20028;-78
2021/07/15 00:52:00;;;;;;;30.90;17.25;;;16.90;89.20;;;;;;5090775;28;20020;-75
2021/07/15 00:54:26;;;;;;;29.13;17.05;;;16.90;89.20;;;;;;5081826;28;20036;-76
2021/07/15 00:56:52;;;;;;;32.65;17.20;;;16.90;89.20;;;;;;5089461;28;20024;-76
2021/07/15 00:59:20;;;;;;;33.45;17.83;;;16.90;89.20;;;;;;5087823;28;20092;-76
2021/07/15 01:01:49;;;;;;;29.23;16.90;;;16.90;89.10;;;;;;5084698;28;20028;-76
2021/07/15 01:04:15;;;;;;;27.90;16.20;;;16.90;89.10;;;;;;5090266;28;20036;-76
2021/07/15 01:06:41;;;;;;;32.80;16.70;;;17.00;88.90;;;;;;5089252;28;20069;-75
2021/07/15 01:09:07;;;;;;;22.73;15.43;;;16.90;88.90;;;;;;5088504;28;20394;-75
2021/07/15 01:12:11;;;;;;;27.05;15.90;;;17.00;88.90;;;;;;5089621;28;20157;-76
2021/07/15 01:14:51;;;;;;;24.88;16.05;;;17.00;88.60;;;;;;5088971;28;20507;-76
2021/07/15 01:17:21;;;;;;;26.27;15.32;;;17.00;88.30;;;;;;5074371;28;20377;-79
2021/07/15 01:20:02;;;;;;;27.75;15.27;;;17.00;88.20;;;;;;5088954;28;20044;-76
2021/07/15 01:22:36;;;;;;;23.30;14.32;;;17.10;88.10;;;;;;5087592;28;20036;-74
2021/07/15 01:25:26;;;;;;;31.40;14.50;;;17.10;88.00;;;;;;5067512;28;20127;-76
2021/07/15 01:28:19;;;;;;;22.45;13.60;;;17.10;87.80;;;;;;5068511;28;20025;-76
2021/07/15 01:30:47;;;;;;;26.15;13.75;;;17.10;87.60;;;;;;5074223;28;20090;-76
2021/07/15 01:33:22;;;;;;;22.73;12.23;;;17.10;87.50;;;;;;5084439;28;20454;-75
2021/07/15 01:36:02;;;;;;;20.48;12.50;;;17.10;86.90;;;;;;5073060;28;20029;-76
2021/07/15 01:38:35;;;;;;;23.00;11.98;;;17.10;86.80;;;;;;5067940;28;20584;-76
2021/07/15 01:41:23;;;;;;;26.65;13.13;;;17.20;86.40;;;;;;5069591;28;20574;-76
2021/07/15 01:44:11;;;;;;;21.98;12.13;;;17.20;86.20;;;;;;5072900;28;20127;-76
2021/07/15 01:46:39;;;;;;;20.38;11.93;;;17.20;86.10;;;;;;5088501;28;20085;-76
2021/07/15 01:49:06;;;;;;;19.92;11.90;;;17.20;86.10;;;;;;5087596;28;20897;-76
2021/07/15 01:51:34;;;;;;;26.38;12.95;;;17.20;86.00;;;;;;5089836;28;20066;-75
2021/07/15 01:54:00;;;;;;;22.17;11.52;;;17.20;85.90;;;;;;5073238;28;20114;-78
2021/07/15 01:56:27;;;;;;;27.35;12.60;;;17.20;85.60;;;;;;5087402;28;20032;-77
2021/07/15 01:58:54;;;;;;;23.98;11.20;;;17.30;85.40;;;;;;5088429;28;20040;-76
2021/07/15 02:01:21;;;;;;;22.15;12.05;;;17.30;85.30;;;;;;5077051;28;20250;-76
2021/07/15 02:03:50;;;;;;;24.00;12.25;;;17.30;85.20;;;;;;5069636;28;20024;-76
2021/07/15 02:06:18;;;;;;;23.85;11.63;;;17.20;85.10;;;;;;5077991;28;20483;-75
2021/07/15 02:08:46;;;;;;;20.52;11.50;;;17.30;85.10;;;;;;5087893;28;20062;-76
2021/07/15 02:11:14;;;;;;;25.30;13.07;;;17.30;85.10;;;;;;5087499;28;20078;-75
2021/07/15 02:13:42;;;;;;;19.95;12.38;;;17.30;85.00;;;;;;5089274;28;20129;-75
2021/07/15 02:16:08;;;;;;;21.20;12.27;;;17.20;85.20;;;;;;5079956;28;20101;-75
2021/07/15 02:18:34;;;;;;;24.17;12.45;;;17.20;85.30;;;;;;5067818;28;20055;-76
2021/07/15 02:21:01;;;;;;;23.38;13.23;;;17.20;85.40;;;;;;5084646;28;20043;-75
2021/07/15 02:23:28;;;;;;;26.17;13.07;;;17.20;85.50;;;;;;5075665;28;20033;-76
2021/07/15 02:25:56;;;;;;;24.80;12.50;;;17.10;85.60;;;;;;5087411;28;20040;-78
2021/07/15 02:28:23;;;;;;;27.80;14.02;;;17.10;85.80;;;;;;5087679;28;20066;-75
2021/07/15 02:30:57;;;;;;;24.00;14.30;;;17.10;85.80;;;;;;5081599;28;20360;-75
2021/07/15 02:33:26;;;;;;;30.25;15.88;;;17.10;86.10;;;;;;5082039;28;20038;-76
2021/07/15 02:35:54;;;;;;;32.38;16.85;;;17.10;86.30;;;;;;5072105;28;20044;-76
2021/07/15 02:38:22;;;;;;;31.13;16.00;;;17.10;86.40;;;;;;5068164;28;20048;-75
2021/07/15 02:40:49;;;;;;;32.85;17.52;;;17.10;86.40;;;;;;5087857;28;20032;-79
2021/07/15 02:43:15;;;;;;;28.10;16.92;;;17.10;86.50;;;;;;5087312;28;20028;-75
2021/07/15 02:45:40;;;;;;;27.08;16.15;;;17.00;86.60;;;;;;5088774;28;20082;-75
2021/07/15 02:48:06;;;;;;;30.45;16.60;;;17.00;86.80;;;;;;5086315;28;20040;-76
2021/07/15 02:50:32;;;;;;;32.28;17.05;;;17.00;86.80;;;;;;5078966;28;20181;-76
2021/07/15 02:52:58;;;;;;;26.45;15.70;;;17.00;86.80;;;;;;5072588;28;20039;-76
2021/07/15 02:55:26;;;;;;;28.38;16.38;;;17.00;86.90;;;;;;5081031;28;20028;-75
2021/07/15 02:58:16;;;;;;;35.30;16.27;;;17.00;86.90;;;;;;5084452;28;20044;-75
2021/07/15 03:00:51;;;;;;;30.58;17.05;;;16.90;87.20;;;;;;5070987;28;20050;-75
2021/07/15 03:03:41;;;;;;;30.50;16.83;;;16.90;87.30;;;;;;5072148;28;20025;-74
2021/07/15 03:06:15;;;;;;;31.45;17.65;;;17.00;87.20;;;;;;5070623;28;20480;-75
2021/07/15 03:08:52;;;;;;;32.75;17.30;;;16.90;87.30;;;;;;5088006;28;20028;-75
2021/07/15 03:11:19;;;;;;;34.00;17.00;;;16.90;87.40;;;;;;5089688;28;20028;-75
2021/07/15 03:13:46;;;;;;;30.35;16.27;;;16.90;87.50;;;;;;5091342;28;20096;-75
2021/07/15 03:16:14;;;;;;;35.72;18.42;;;16.90;87.50;;;;;;5090671;28;20020;-76
2021/07/15 03:18:43;;;;;;;32.80;16.15;;;16.90;87.60;;;;;;5090815;28;20040;-76
2021/07/15 03:21:11;;;;;;;32.97;17.02;;;16.90;87.60;;;;;;5090514;28;20050;-75
2021/07/15 03:23:39;;;;;;;35.42;17.70;;;16.90;87.60;;;;;;5082751;28;20082;-74
2021/07/15 03:26:07;;;;;;;31.67;18.38;;;16.90;87.70;;;;;;5088197;28;20062;-76
2021/07/15 03:28:36;;;;;;;35.60;17.63;;;16.80;88.00;;;;;;5090876;28;20356;-76
2021/07/15 03:31:09;;;;;;;39.28;18.08;;;16.80;88.10;;;;;;5083681;28;20128;-76
2021/07/15 03:33:38;;;;;;;36.00;18.27;;;16.80;88.10;;;;;;5073923;28;20087;-77
2021/07/15 03:36:09;;;;;;;32.20;17.55;;;16.80;88.20;;;;;;5074325;28;20059;-76
2021/07/15 03:38:37;;;;;;;36.17;17.27;;;16.90;88.20;;;;;;5072065;28;20040;-78
2021/07/15 03:41:04;;;;;;;35.28;18.83;;;16.80;88.30;;;;;;5070210;28;20115;-76
2021/07/15 03:43:31;;;;;;;35.28;18.17;;;16.80;88.30;;;;;;5070514;28;20417;-76
2021/07/15 03:45:58;;;;;;;36.60;18.13;;;16.80;88.40;;;;;;5077451;28;20368;-77
2021/07/15 03:48:26;;;;;;;34.38;17.67;;;16.70;88.60;;;;;;5091503;28;20024;-78
2021/07/15 03:50:57;;;;;;;33.10;17.98;;;16.80;88.60;;;;;;5090623;28;20054;-76
2021/07/15 03:53:23;;;;;;;34.03;18.88;;;16.80;88.60;;;;;;5083622;28;20039;-77
2021/07/15 03:55:50;;;;;;;33.90;18.77;;;16.80;88.70;;;;;;5076710;28;20532;-76
2021/07/15 03:58:16;;;;;;;39.15;19.38;;;16.80;88.80;;;;;;5089857;28;20040;-76
2021/07/15 04:00:45;;;;;;;32.83;18.85;;;16.70;88.90;;;;;;5075513;28;20032;-77
2021/07/15 04:03:17;;;;;;;35.33;19.30;;;16.80;88.90;;;;;;5090014;28;20024;-76
2021/07/15 04:05:44;;;;;;;33.80;19.02;;;16.80;89.10;;;;;;5089942;28;20193;-78
2021/07/15 04:08:10;;;;;;;36.00;18.88;;;16.80;89.20;;;;;;5072022;28;20036;-76
2021/07/15 04:10:39;;;;;;;32.25;19.40;;;16.80;89.20;;;;;;5069800;28;20049;-77
2021/07/15 04:13:05;;;;;;;31.17;17.77;;;16.80;89.40;;;;;;5069512;28;20021;-76
2021/07/15 04:16:04;;;;;;;36.00;18.67;;;16.80;89.40;;;;;;5071082;28;20025;-76
2021/07/15 04:18:34;;;;;;;34.47;20.33;;;16.80;89.50;;;;;;5070482;28;20037;-77
2021/07/15 04:21:00;;;;;;;32.78;18.92;;;16.70;89.60;;;;;;5071274;28;20025;-76
2021/07/15 04:23:27;;;;;;;37.55;21.20;;;16.70;89.80;;;;;;5070237;28;20036;-77
2021/07/15 04:25:54;;;;;;;35.85;20.20;;;16.80;89.90;;;;;;5070470;28;20479;-76
2021/07/15 04:28:20;;;;;;;33.92;19.73;;;16.80;90.00;;;;;;5070311;28;20024;-76
2021/07/15 04:30:57;;;;;;;36.45;20.25;;;16.80;90.00;;;;;;5076527;28;20062;-76
2021/07/15 04:33:24;;;;;;;33.15;19.80;;;16.80;89.90;;;;;;5089441;28;20055;-76
2021/07/15 04:35:52;;;;;;;37.28;21.00;;;16.80;90.00;;;;;;5089424;28;20027;-75
2021/07/15 04:38:18;;;;;;;35.08;21.95;;;16.80;89.90;;;;;;5089540;28;20093;-74
2021/07/15 04:40:45;;;;;;;36.35;20.05;;;16.90;90.00;;;;;;5088111;28;20191;-75
2021/07/15 04:43:11;;;;;;;39.20;20.92;;;16.80;89.90;;;;;;5089048;28;20068;-75
2021/07/15 04:45:40;;;;;;;36.90;21.98;;;16.80;90.00;;;;;;5084718;28;20036;-75
2021/07/15 04:48:06;;;;;;;36.47;21.33;;;16.80;90.00;;;;;;5068832;28;20052;-75
2021/07/15 04:50:34;;;;;;;36.17;19.90;;;16.90;90.00;;;;;;5069982;28;20032;-76
2021/07/15 04:53:03;;;;;;;36.40;20.30;;;16.80;90.10;;;;;;5069219;28;20028;-77
2021/07/15 04:55:30;;;;;;;33.13;20.15;;;16.80;90.00;;;;;;5068766;28;20059;-75
2021/07/15 04:57:56;;;;;;;29.17;19.75;;;16.90;90.00;;;;;;5085104;28;20036;-74
2021/07/15 05:00:23;;;;;;;31.38;19.85;;;16.80;90.00;;;;;;5073273;28;20116;-74
2021/07/15 05:03:13;;;;;;;33.92;19.30;;;16.90;89.90;;;;;;5074205;28;20048;-76
2021/07/15 05:05:38;;;;;;;35.13;19.63;;;16.90;89.80;;;;;;5069789;28;20102;-76
2021/07/15 05:08:04;;;;;;;33.22;19.40;;;16.90;89.80;;;;;;5068413;28;20387;-77
2021/07/15 05:10:30;;;;;;;34.70;20.00;;;16.90;89.80;;;;;;5068473;28;20479;-76
2021/07/15 05:12:56;;;;;;;34.40;18.92;;;16.90;89.80;;;;;;5076206;28;20058;-74
2021/07/15 05:15:21;;;;;;;30.80;18.65;;;16.90;89.70;;;;;;5088400;28;20036;-76
2021/07/15 05:17:47;;;;;;;33.15;17.98;;;16.90;89.60;;;;;;5088068;28;20036;-75
2021/07/15 05:20:13;;;;;;;32.58;17.00;;;16.90;89.60;;;;;;5088608;28;20028;-77
2021/07/15 05:22:38;;;;;;;30.25;16.83;;;16.90;89.20;;;;;;5089657;28;20395;-74
2021/07/15 05:25:06;;;;;;;31.30;16.42;;;17.00;89.10;;;;;;5083628;28;20379;-74
2021/07/15 05:27:33;;;;;;;28.15;16.52;;;17.00;89.10;;;;;;5088339;28;20028;-74
2021/07/15 05:29:59;;;;;;;33.67;17.52;;;17.10;88.90;;;;;;5088642;28;20034;-74
2021/07/15 05:32:25;;;;;;;31.25;15.98;;;17.00;88.70;;;;;;5088180;28;20028;-76
2021/07/15 05:34:51;;;;;;;29.92;16.05;;;17.10;88.50;;;;;;5086599;28;20039;-76
2021/07/15 05:37:16;;;;;;;30.60;15.38;;;17.20;88.40;;;;;;5089686;28;20055;-75
2021/07/15 05:39:45;;;;;;;28.60;15.35;;;17.10;88.20;;;;;;5088299;28;20036;-73
2021/07/15 05:42:11;;;;;;;25.45;14.93;;;17.10;87.80;;;;;;5089356;28;20032;-73
2021/07/15 05:44:38;;;;;;;28.77;16.00;;;17.20;87.60;;;;;;5089755;28;20084;-72
2021/07/15 05:47:07;;;;;;;24.88;16.52;;;17.20;87.50;;;;;;5070595;28;20520;-75
2021/07/15 05:49:36;;;;;;;25.55;16.10;;;17.30;87.20;;;;;;5068317;28;20020;-74
2021/07/15 05:52:05;;;;;;;24.92;15.73;;;17.30;87.20;;;;;;5068714;28;20058;-73
2021/07/15 05:54:32;;;;;;;26.98;17.00;;;17.30;87.10;;;;;;5083427;28;20031;-73
2021/07/15 05:56:58;;;;;;;26.30;16.13;;;17.30;86.70;;;;;;5088360;28;20029;-72
2021/07/15 05:59:23;;;;;;;30.70;17.85;;;17.30;86.80;;;;;;5076586;28;20516;-73
2021/07/15 06:01:49;;;;;;;29.58;17.05;;;17.30;86.90;;;;;;5082577;28;20044;-73
2021/07/15 06:04:15;;;;;;;28.20;16.63;;;17.30;86.70;;;;;;5087822;28;20028;-72
2021/07/15 06:06:41;;;;;;;24.83;16.52;;;17.40;86.60;;;;;;5089445;28;20060;-73
2021/07/15 06:09:07;;;;;;;29.65;17.55;;;17.30;86.50;;;;;;5088045;28;20467;-72
2021/07/15 06:11:33;;;;;;;31.77;18.55;;;17.40;86.20;;;;;;5087960;28;20024;-74
2021/07/15 06:13:58;;;;;;;31.73;17.35;;;17.40;86.10;;;;;;5089246;28;20066;-72
2021/07/15 06:16:24;;;;;;;25.08;16.58;;;17.40;86.20;;;;;;5077552;28;20124;-73
2021/07/15 06:18:49;;;;;;;25.35;16.13;;;17.40;86.00;;;;;;5072876;28;20402;-75
2021/07/15 06:21:15;;;;;;;32.25;17.75;;;17.50;85.90;;;;;;5087769;28;20028;-74
2021/07/15 06:23:41;;;;;;;34.72;16.25;;;17.50;85.80;;;;;;5079945;28;20497;-72
2021/07/15 06:26:07;;;;;;;26.08;16.35;;;17.60;85.80;;;;;;5068283;28;20036;-73
2021/07/15 06:28:33;;;;;;;30.55;16.45;;;17.60;85.80;;;;;;5070104;28;20103;-72
2021/07/15 06:30:59;;;;;;;24.33;16.00;;;17.60;85.40;;;;;;5080349;28;20379;-72
2021/07/15 06:33:25;;;;;;;28.13;15.15;;;17.70;85.30;;;;;;5092790;28;20082;-74
2021/07/15 06:35:52;;;;;;;26.17;15.57;;;17.70;85.20;;;;;;5076238;28;20025;-72
2021/07/15 06:38:18;;;;;;;27.88;15.15;;;17.80;85.30;;;;;;5072145;28;20072;-73
2021/07/15 06:40:46;;;;;;;25.02;15.68;;;17.90;85.00;;;;;;5076369;28;20380;-73
2021/07/15 06:43:12;;;;;;;27.05;15.40;;;17.90;84.60;;;;;;5091176;28;20063;-72
2021/07/15 06:45:37;;;;;;;29.52;14.55;;;18.00;84.50;;;;;;5086721;28;20064;-73
2021/07/15 06:48:03;;;;;;;22.40;13.82;;;18.00;84.30;;;;;;5071289;28;20040;-74
2021/07/15 06:50:29;;;;;;;25.35;14.15;;;18.10;84.20;;;;;;5072938;28;20036;-73
2021/07/15 06:52:55;;;;;;;29.95;15.40;;;18.10;83.70;;;;;;5072107;28;20510;-74
2021/07/15 06:55:21;;;;;;;22.20;12.98;;;18.10;83.80;;;;;;5070981;28;20127;-74
2021/07/15 06:57:47;;;;;;;24.45;13.05;;;18.10;83.70;;;;;;5085648;28;20067;-72
2021/07/15 07:00:16;;;;;;;32.03;14.52;;;18.10;83.60;;;;;;5075320;28;20139;-72
2021/07/15 07:02:44;;;;;;;29.73;13.75;;;18.20;83.80;;;;;;5089986;28;20117;-73
2021/07/15 07:05:11;;;;;;;24.38;13.00;;;18.20;83.60;;;;;;5090921;28;20371;-73
2021/07/15 07:07:37;;;;;;;23.67;12.80;;;18.30;82.90;;;;;;5091462;28;20025;-73
2021/07/15 07:10:08;;;;;;;23.65;12.88;;;18.30;83.20;;;;;;5091286;28;20028;-74
2021/07/15 07:12:34;;;;;;;22.42;12.65;;;18.30;82.70;;;;;;5093874;28;20050;-72
2021/07/15 07:15:00;;;;;;;21.38;12.00;;;18.40;82.90;;;;;;5091870;28;20029;-72
2021/07/15 07:17:26;;;;;;;20.00;12.30;;;18.40;82.80;;;;;;5070323;28;20422;-73
2021/07/15 07:19:52;;;;;;;22.30;13.00;;;18.50;82.70;;;;;;5070770;28;20467;-73
2021/07/15 07:22:17;;;;;;;26.17;12.82;;;18.50;82.40;;;;;;5071776;28;20024;-73
2021/07/15 07:24:43;;;;;;;20.88;11.98;;;18.60;82.50;;;;;;5086339;28;20073;-72
2021/07/15 07:27:09;;;;;;;20.33;12.88;;;18.70;81.50;;;;;;5092233;28;20153;-74
2021/07/15 07:29:34;;;;;;;19.35;12.55;;;18.70;81.80;;;;;;5092559;28;20062;-72
2021/07/15 07:32:00;;;;;;;25.92;12.90;;;18.80;81.70;;;;;;5075713;28;20090;-72
2021/07/15 07:34:26;;;;;;;24.50;13.25;;;18.80;81.70;;;;;;5071607;28;20035;-72
2021/07/15 07:36:51;;;;;;;21.27;12.30;;;18.80;81.40;;;;;;5085984;28;20526;-73
2021/07/15 07:39:17;;;;;;;20.83;12.25;;;18.80;81.30;;;;;;5091382;28;20033;-72
2021/07/15 07:41:43;;;;;;;22.05;11.98;;;18.90;81.30;;;;;;5092375;28;20028;-72
2021/07/15 07:44:09;;;;;;;23.95;13.57;;;19.00;81.50;;;;;;5091679;28;20055;-72
2021/07/15 07:46:35;;;;;;;21.75;12.40;;;19.00;81.40;;;;;;5081349;28;20485;-74
2021/07/15 07:49:00;;;;;;;22.58;12.25;;;18.90;81.40;;;;;;5091920;28;20032;-73
2021/07/15 07:51:28;;;;;;;24.48;13.32;;;18.90;81.10;;;;;;5090511;28;20037;-75
2021/07/15 07:53:56;;;;;;;22.33;13.38;;;18.80;81.10;;;;;;5083294;28;20020;-73
2021/07/15 07:56:22;;;;;;;21.58;12.57;;;18.90;81.40;;;;;;5089830;28;20502;-74
2021/07/15 07:58:48;;;;;;;22.48;13.10;;;19.00;80.20;;;;;;5090687;28;20032;-72
2021/07/15 08:01:15;;;;;;;23.60;13.00;;;19.10;80.00;;;;;;5080272;28;20442;-72
2021/07/15 08:03:40;;;;;;;23.10;12.80;;;19.00;80.00;;;;;;5071505;28;20028;-73
2021/07/15 08:06:06;;;;;;;25.77;12.90;;;19.00;80.50;;;;;;5069869;28;20029;-73
2021/07/15 08:08:34;;;;;;;24.63;13.77;;;19.10;80.40;;;;;;5074428;28;20036;-72
2021/07/15 08:11:00;;;;;;;20.55;13.27;;;19.00;80.80;;;;;;5090213;28;20115;-72
2021/07/15 08:13:26;;;;;;;20.48;12.77;;;19.00;80.70;;;;;;5091257;28;20995;-73
2021/07/15 08:15:52;;;;;;;24.23;13.82;;;18.90;80.70;;;;;;5091557;28;20044;-72
2021/07/15 08:18:18;;;;;;;22.73;13.13;;;18.80;81.00;;;;;;5089721;28;20643;-74
2021/07/15 08:20:44;;;;;;;24.10;14.15;;;18.80;81.10;;;;;;5088888;28;20040;-73
2021/07/15 08:23:09;;;;;;;20.77;13.52;;;18.90;80.40;;;;;;5083542;28;20029;-72
2021/07/15 08:25:35;;;;;;;22.45;13.88;;;18.80;80.70;;;;;;5091362;28;20044;-73
2021/07/15 08:28:01;;;;;;;22.15;13.90;;;18.90;80.80;;;;;;5089901;28;20086;-72
2021/07/15 08:30:27;;;;;;;26.98;14.75;;;19.00;80.60;;;;;;5089494;28;21433;-77
2021/07/15 08:32:53;;;;;;;25.08;15.10;;;19.10;80.70;;;;;;5089883;28;20055;-73
2021/07/15 08:35:19;;;;;;;24.75;15.05;;;19.00;80.80;;;;;;5079919;28;20035;-72
2021/07/15 08:37:44;;;;;;;31.08;15.27;;;19.00;80.70;;;;;;5070950;28;20067;-73
2021/07/15 08:40:10;;;;;;;22.35;15.27;;;19.00;81.00;;;;;;5070164;28;20032;-72
2021/07/15 08:42:38;;;;;;;26.35;15.35;;;18.90;81.00;;;;;;5081182;28;20036;-73
2021/07/15 08:45:07;;;;;;;26.83;16.98;;;18.80;81.30;;;;;;5088782;28;20103;-73
2021/07/15 08:47:38;;;;;;;26.27;15.65;;;18.80;81.30;;;;;;5091052;28;20032;-72
2021/07/15 08:50:05;;;;;;;27.48;15.90;;;18.90;81.40;;;;;;5088786;28;20479;-74
2021/07/15 08:52:34;;;;;;;28.90;15.63;;;18.80;81.20;;;;;;5089027;28;20036;-73
2021/07/15 08:55:06;;;;;;;26.23;15.38;;;19.10;81.10;;;;;;5088032;28;20024;-73
2021/07/15 08:57:32;;;;;;;26.48;15.77;;;19.10;79.90;;;;;;5076529;28;20028;-73
2021/07/15 08:59:58;;;;;;;27.48;16.35;;;18.90;80.60;;;;;;5086126;28;20044;-74
2021/07/15 09:02:24;;;;;;;27.10;15.45;;;19.00;80.70;;;;;;5088742;28;20107;-72
2021/07/15 09:04:51;;;;;;;28.58;16.77;;;18.90;80.70;;;;;;5073813;28;20117;-72
2021/07/15 09:07:17;;;;;;;27.58;15.90;;;18.80;80.90;;;;;;5068589;28;20052;-73
2021/07/15 09:09:48;;;;;;;29.77;17.33;;;18.70;81.30;;;;;;5068660;28;20436;-73
2021/07/15 09:12:14;;;;;;;25.52;16.50;;;18.70;81.20;;;;;;5068521;28;20040;-71
2021/07/15 09:14:51;;;;;;;27.27;15.45;;;18.80;81.20;;;;;;5068389;28;20033;-72
2021/07/15 09:17:30;;;;;;;25.83;16.60;;;18.90;81.10;;;;;;5068159;28;20082;-72
2021/07/15 09:19:57;;;;;;;27.42;16.60;;;19.00;80.40;;;;;;5070336;28;20395;-72
2021/07/15 09:22:22;;;;;;;27.13;16.20;;;19.30;80.40;;;;;;5069479;28;20071;-72
2021/07/15 09:24:50;;;;;;;27.42;16.08;;;19.50;80.00;;;;;;5085425;28;20048;-72
2021/07/15 09:27:21;;;;;;;23.88;16.42;;;19.70;78.90;;;;;;5069902;28;20424;-72
2021/07/15 09:30:06;;;;;;;25.20;16.00;;;19.70;78.80;;;;;;5068553;28;20028;-72
2021/07/15 09:32:32;;;;;;;26.90;16.70;;;19.50;78.10;;;;;;5069899;28;20098;-72
2021/07/15 09:35:06;;;;;;;25.00;15.18;;;19.50;79.20;;;;;;5076558;28;20536;-73
2021/07/15 09:37:36;;;;;;;26.15;16.13;;;19.60;78.60;;;;;;5087992;28;20032;-73
2021/07/15 09:40:04;;;;;;;23.20;15.95;;;19.40;78.70;;;;;;5089427;28;20032;-73
2021/07/15 09:42:30;;;;;;;32.00;16.27;;;19.40;78.40;;;;;;5088595;28;20033;-73
2021/07/15 09:44:55;;;;;;;25.00;14.88;;;19.60;78.60;;;;;;5089932;28;20036;-74
2021/07/15 09:47:36;;;;;;;21.70;15.63;;;19.60;78.10;;;;;;5086967;28;20398;-73
2021/07/15 09:50:26;;;;;;;21.77;14.98;;;19.60;78.00;;;;;;5068947;28;20040;-73
2021/07/15 09:52:52;;;;;;;25.45;15.68;;;19.70;77.90;;;;;;5069742;28;20533;-74
2021/07/15 09:55:26;;;;;;;27.85;15.32;;;19.70;77.80;;;;;;5069416;28;20043;-76
2021/07/15 09:58:02;;;;;;;23.23;15.07;;;19.80;77.90;;;;;;5085008;28;20123;-73
2021/07/15 10:00:36;;;;;;;22.52;14.15;;;19.70;78.00;;;;;;5072760;28;20262;-73
2021/07/15 10:03:03;;;;;;;20.35;15.10;;;19.50;78.60;;;;;;5087787;28;20043;-72
2021/07/15 10:05:29;;;;;;;21.95;14.23;;;19.50;78.10;;;;;;5088153;28;20044;-72
2021/07/15 10:08:09;;;;;;;26.02;13.75;;;19.40;77.80;;;;;;5089764;28;20043;-74
2021/07/15 10:10:36;;;;;;;23.77;12.90;;;19.30;78.10;;;;;;5088753;28;20032;-72
2021/07/15 10:13:25;;;;;;;18.27;12.30;;;19.40;78.70;;;;;;5087455;28;20036;-73
2021/07/15 10:15:52;;;;;;;22.38;13.35;;;19.60;77.70;;;;;;5071951;28;20039;-73
2021/07/15 10:18:34;;;;;;;21.70;12.75;;;19.60;77.90;;;;;;5067179;28;20041;-72
2021/07/15 10:21:00;;;;;;;19.45;13.02;;;19.90;77.10;;;;;;5067256;28;20395;-72
2021/07/15 10:23:37;;;;;;;24.33;12.07;;;19.90;77.60;;;;;;5068796;28;20032;-75
2021/07/15 10:26:04;;;;;;;20.33;11.50;;;19.90;77.10;;;;;;5066705;28;20495;-72
2021/07/15 10:28:30;;;;;;;25.95;12.07;;;20.20;76.90;;;;;;5068236;28;20033;-73
2021/07/15 10:31:06;;;;;;;20.75;10.98;;;19.90;76.10;;;;;;5076105;28;20016;-73
2021/07/15 10:33:33;;;;;;;18.10;10.38;;;20.00;76.20;;;;;;5087017;28;20052;-73
2021/07/15 10:36:01;;;;;;;19.50;10.55;;;19.80;77.10;;;;;;5070650;28;20036;-73
2021/07/15 10:38:29;;;;;;;20.13;10.98;;;20.00;76.40;;;;;;5068793;28;20131;-75
2021/07/15 10:40:56;;;;;;;22.15;11.13;;;19.80;77.40;;;;;;5067489;28;20039;-73
2021/07/15 10:43:22;;;;;;;23.13;10.85;;;20.00;77.00;;;;;;5068262;28;20047;-73
2021/07/15 10:45:48;;;;;;;19.90;11.40;;;19.90;76.70;;;;;;5075031;28;20067;-74
2021/07/15 10:48:15;;;;;;;23.10;12.57;;;19.80;77.20;;;;;;5087420;28;20043;-74
2021/07/15 10:50:43;;;;;;;20.55;11.52;;;19.80;77.60;;;;;;5089649;28;20040;-72
2021/07/15 10:53:09;;;;;;;21.17;11.90;;;19.80;77.40;;;;;;5081253;28;20045;-71
2021/07/15 10:55:36;;;;;;;18.70;11.70;;;19.90;77.80;;;;;;5067566;28;20564;-72
2021/07/15 10:58:03;;;;;;;21.23;11.90;;;19.90;77.50;;;;;;5083226;28;20040;-73
2021/07/15 11:00:29;;;;;;;20.98;11.48;;;19.80;77.00;;;;;;5072164;28;20024;-72
2021/07/15 11:03:25;;;;;;;22.52;12.50;;;20.00;77.90;;;;;;5088517;28;20086;-73
2021/07/15 11:05:57;;;;;;;19.25;10.30;;;20.20;76.70;;;;;;5068457;28;20111;-75
2021/07/15 11:08:44;;;;;;;21.58;11.32;;;20.30;75.50;;;;;;5068513;28;20087;-73
2021/07/15 11:11:11;;;;;;;20.17;11.00;;;20.40;75.90;;;;;;5068032;28;20472;-73
2021/07/15 11:13:38;;;;;;;22.40;11.70;;;20.20;75.80;;;;;;5067232;28;20476;-73
2021/07/15 11:16:06;;;;;;;18.30;10.77;;;20.20;76.40;;;;;;5077696;28;20119;-72
2021/07/15 11:18:56;;;;;;;19.98;11.13;;;20.30;76.40;;;;;;5091174;28;20032;-73
2021/07/15 11:21:30;;;;;;;20.38;11.38;;;20.00;76.70;;;;;;5092094;28;20039;-73
2021/07/15 11:24:21;;;;;;;18.23;11.48;;;19.70;77.10;;;;;;5079663;28;20032;-73
2021/07/15 11:26:47;;;;;;;20.85;11.30;;;19.70;77.40;;;;;;5068127;28;20409;-72
2021/07/15 11:29:13;;;;;;;21.13;11.20;;;19.70;77.40;;;;;;5092011;28;20081;-73
2021/07/15 11:31:42;;;;;;;22.27;11.48;;;19.80;77.10;;;;;;5077721;28;20032;-72
2021/07/15 11:34:08;;;;;;;19.42;10.70;;;19.40;78.20;;;;;;5072289;28;20060;-73
2021/07/15 11:36:35;;;;;;;18.83;11.32;;;19.20;78.00;;;;;;5091257;28;20114;-72
2021/07/15 11:39:06;;;;;;;21.38;11.30;;;19.10;78.90;;;;;;5091544;28;20119;-73
2021/07/15 11:41:49;;;;;;;21.95;12.82;;;19.10;79.10;;;;;;5092406;28;20036;-72
2021/07/15 11:44:17;;;;;;;22.63;12.65;;;19.00;79.50;;;;;;5091684;28;20055;-72
2021/07/15 11:46:45;;;;;;;22.63;12.93;;;19.30;79.60;;;;;;5078057;28;20044;-71
2021/07/15 11:49:12;;;;;;;21.58;12.45;;;19.20;79.60;;;;;;5069309;28;20037;-72
2021/07/15 11:51:40;;;;;;;22.55;12.05;;;19.00;79.30;;;;;;5070397;28;20070;-75
2021/07/15 11:54:46;;;;;;;23.17;12.65;;;19.00;79.70;;;;;;5080886;28;20032;-74
2021/07/15 11:57:11;;;;;;;19.85;11.73;;;18.80;80.70;;;;;;5074748;28;20082;-72
2021/07/15 11:59:38;;;;;;;20.13;12.15;;;18.60;81.00;;;;;;5070333;28;20044;-72
2021/07/15 12:02:04;;;;;;;19.85;12.32;;;18.70;80.60;;;;;;5070743;28;20142;-73
2021/07/15 12:05:12;;;;;;;22.55;12.07;;;18.80;80.50;;;;;;5070428;28;20399;-74
2021/07/15 12:08:08;;;;;;;21.77;11.93;;;18.60;80.90;;;;;;5071488;28;20119;-72
2021/07/15 12:10:48;;;;;;;18.77;12.35;;;18.60;81.00;;;;;;5070026;28;20032;-74
2021/07/15 12:13:16;;;;;;;17.77;10.95;;;18.70;80.40;;;;;;5070758;28;20584;-73
2021/07/15 12:15:44;;;;;;;20.52;11.18;;;18.70;80.90;;;;;;5075012;28;20036;-73
2021/07/15 12:18:18;;;;;;;19.77;11.18;;;18.80;80.70;;;;;;5090921;28;20044;-74
2021/07/15 12:20:47;;;;;;;19.13;11.20;;;18.80;80.50;;;;;;5086094;28;20032;-75
2021/07/15 12:23:23;;;;;;;20.50;10.63;;;18.90;80.00;;;;;;5075624;28;20282;-73
2021/07/15 12:25:51;;;;;;;19.20;11.45;;;18.80;80.30;;;;;;5068868;28;20044;-73
2021/07/15 12:28:27;;;;;;;21.38;12.45;;;19.00;79.80;;;;;;5070657;28;20029;-73
2021/07/15 12:31:04;;;;;;;20.45;11.20;;;19.10;79.30;;;;;;5070911;28;20036;-72
2021/07/15 12:33:49;;;;;;;18.25;10.63;;;19.30;79.10;;;;;;5070667;28;20087;-73
2021/07/15 12:36:19;;;;;;;20.58;10.85;;;19.50;78.80;;;;;;5089357;28;20058;-74
2021/07/15 12:38:50;;;;;;;18.58;10.45;;;19.40;78.40;;;;;;5091052;28;20071;-72